Newfields, New Hampshire
Current Conditions -  °F | °C
As of 3:58 PM on Tuesday 27 Jan 2015 (Local Time) from KPSM Reporting Station
Light Snow Light Snow  
Wind Chill: -2°   Ceiling: 700
Heat Index: 16°   Visibility: 0.37mi
Dew Point: 11°   Wind: 24mph
Humidity: 82%   Direction: 340°NNW
Pressure: 29.51"   Gusts: 35mph
Location:  43.04°N, 70.94°W
Report Text: KPSM 272058Z 34021G30KT 3/8SM R34/P6000FT -SN BLSN OVC007 M09/M11 A2951 RMK AO2A PK WND 35035/38 SLP998 P0002 60005 T10891114 53002
Loading
Personal Weather Stations






























Interactive Weather Map New forecast layout! Learn more

10-Day Weather Forecast

Advertisements
Track Severe Weather on mobile